Time;durP1;ratioP1;P1;durP2;ratioP2;P2;SDS_P1;SDS_P2;PMS_P1;PMS_P2;Temp;Humidity;BMP_temperature;BMP_pressure;BME280_temperature;BME280_humidity;BME280_pressure;Samples;Min_cycle;Max_cycle;Signal;HPM_P1;HPM_P2
2022/03/27 00:02:22;;;;;;;17.60;13.30;;;7.30;99.90;;;;;;4971978;28;20053;-77
2022/03/27 00:04:48;;;;;;;18.17;14.07;;;7.30;99.90;;;;;;4973017;28;20043;-77
2022/03/27 00:07:14;;;;;;;18.08;13.70;;;7.30;99.90;;;;;;4972803;28;20050;-77
2022/03/27 00:09:40;;;;;;;19.10;14.95;;;7.40;99.90;;;;;;4973300;28;20051;-77
2022/03/27 00:12:06;;;;;;;18.05;13.45;;;7.30;99.90;;;;;;4956876;28;20043;-77
2022/03/27 00:14:31;;;;;;;20.45;14.60;;;7.30;99.90;;;;;;4973262;28;20509;-77
2022/03/27 00:16:57;;;;;;;17.25;13.45;;;7.30;99.90;;;;;;4972796;28;20047;-77
2022/03/27 00:19:23;;;;;;;18.42;13.73;;;7.30;99.90;;;;;;4956397;28;20041;-77
2022/03/27 00:21:49;;;;;;;17.27;13.27;;;7.10;99.90;;;;;;4956835;28;20126;-77
2022/03/27 00:24:15;;;;;;;16.70;13.05;;;7.20;99.90;;;;;;4956648;28;20042;-77
2022/03/27 00:26:41;;;;;;;14.55;11.35;;;7.20;99.90;;;;;;4956926;28;20050;-77
2022/03/27 00:29:07;;;;;;;17.40;13.82;;;7.30;99.90;;;;;;4972482;28;20549;-77
2022/03/27 00:31:36;;;;;;;17.38;13.35;;;7.30;99.90;;;;;;4956651;28;20054;-77
2022/03/27 00:34:03;;;;;;;18.52;14.45;;;7.30;99.90;;;;;;4956526;28;20051;-77
2022/03/27 00:36:28;;;;;;;17.13;13.88;;;7.40;99.90;;;;;;4972751;28;20042;-77
2022/03/27 00:38:54;;;;;;;18.02;14.10;;;7.20;99.90;;;;;;4956602;28;20109;-77
2022/03/27 00:41:20;;;;;;;17.88;13.70;;;7.10;99.90;;;;;;4973038;28;20465;-77
2022/03/27 00:43:46;;;;;;;19.67;13.57;;;7.20;99.90;;;;;;4956417;28;20039;-77
2022/03/27 00:46:11;;;;;;;18.77;14.05;;;7.20;99.90;;;;;;4972709;28;20117;-77
2022/03/27 00:48:38;;;;;;;19.80;14.38;;;7.10;99.90;;;;;;4955623;28;20505;-77
2022/03/27 00:51:04;;;;;;;21.70;14.85;;;7.10;99.90;;;;;;4972612;28;20057;-77
2022/03/27 00:53:30;;;;;;;18.20;13.80;;;7.10;99.90;;;;;;4956454;28;20043;-77
2022/03/27 00:55:56;;;;;;;18.90;14.48;;;7.10;99.90;;;;;;4990343;28;20053;-77
2022/03/27 00:58:22;;;;;;;19.20;14.52;;;7.10;99.90;;;;;;4991680;28;20039;-77
2022/03/27 01:01:09;;;;;;;20.73;14.68;;;7.10;99.90;;;;;;4992027;28;20133;-77
2022/03/27 01:03:37;;;;;;;20.02;15.23;;;7.10;99.90;;;;;;4990991;28;20078;-77
2022/03/27 01:06:03;;;;;;;20.40;15.00;;;7.10;99.90;;;;;;4991908;28;20057;-77
2022/03/27 01:11:19;;;;;;;19.05;13.95;;;7.10;99.90;;;;;;4991948;28;20053;-77
2022/03/27 01:13:56;;;;;;;19.42;14.10;;;7.10;99.90;;;;;;4991687;28;20054;-77
2022/03/27 01:16:48;;;;;;;18.73;13.40;;;7.10;99.90;;;;;;4991979;28;20038;-77
2022/03/27 01:19:15;;;;;;;20.40;14.35;;;7.10;99.90;;;;;;4994457;28;20053;-77
2022/03/27 01:21:44;;;;;;;19.50;14.68;;;7.10;99.90;;;;;;4995423;28;20034;-77
2022/03/27 01:24:10;;;;;;;19.70;14.95;;;7.10;99.90;;;;;;4995362;28;20524;-77
2022/03/27 01:26:37;;;;;;;20.00;14.88;;;7.00;99.90;;;;;;4995103;28;20121;-77
2022/03/27 01:29:05;;;;;;;21.90;16.40;;;6.90;99.90;;;;;;4995274;28;20402;-77
2022/03/27 01:31:31;;;;;;;21.95;15.98;;;6.90;99.90;;;;;;4995050;28;20065;-77
2022/03/27 01:33:57;;;;;;;20.38;15.50;;;6.80;99.90;;;;;;4978065;28;20058;-77
2022/03/27 01:36:25;;;;;;;22.85;15.95;;;6.80;99.90;;;;;;4979285;28;20042;-77
2022/03/27 01:38:53;;;;;;;21.05;15.30;;;6.70;99.90;;;;;;4994849;28;20050;-77
2022/03/27 01:41:19;;;;;;;19.75;14.48;;;6.70;99.90;;;;;;4995054;28;20038;-77
2022/03/27 01:43:45;;;;;;;18.75;13.70;;;6.60;99.90;;;;;;4994820;28;20053;-77
2022/03/27 01:46:11;;;;;;;18.73;14.10;;;6.60;99.90;;;;;;4974619;28;20051;-77
2022/03/27 01:48:37;;;;;;;18.45;13.77;;;6.60;99.90;;;;;;4974393;28;20054;-77
2022/03/27 01:51:03;;;;;;;18.65;14.38;;;6.60;99.90;;;;;;4975457;28;20505;-77
2022/03/27 01:53:29;;;;;;;17.60;13.07;;;6.60;99.90;;;;;;4991578;28;20060;-77
2022/03/27 01:55:54;;;;;;;16.85;13.32;;;6.50;99.90;;;;;;4991873;28;20034;-77
2022/03/27 01:58:21;;;;;;;18.17;13.02;;;6.50;99.90;;;;;;4975367;28;20035;-77
2022/03/27 02:00:47;;;;;;;17.88;13.45;;;6.60;99.90;;;;;;4975327;28;20042;-77
2022/03/27 02:03:12;;;;;;;19.70;13.00;;;6.60;99.90;;;;;;4991043;28;20073;-77
2022/03/27 02:05:38;;;;;;;23.00;16.50;;;6.50;99.90;;;;;;5011188;28;20397;-77
2022/03/27 02:08:04;;;;;;;20.23;14.95;;;6.50;99.90;;;;;;5010546;28;20046;-77
2022/03/27 02:10:30;;;;;;;23.48;16.70;;;6.40;99.90;;;;;;4962230;28;20038;-77
2022/03/27 02:12:56;;;;;;;22.77;15.25;;;6.30;99.90;;;;;;4961909;28;20038;-77
2022/03/27 02:15:23;;;;;;;18.98;13.65;;;6.20;99.90;;;;;;4978532;28;20038;-77
2022/03/27 02:17:49;;;;;;;18.83;13.68;;;6.10;99.90;;;;;;4993585;28;20065;-77
2022/03/27 02:20:15;;;;;;;21.48;14.55;;;6.10;99.90;;;;;;4978061;28;20129;-77
2022/03/27 02:22:41;;;;;;;20.13;14.40;;;6.10;99.90;;;;;;4977724;28;20049;-77
2022/03/27 02:25:07;;;;;;;20.45;14.32;;;6.10;99.90;;;;;;4994525;28;20041;-77
2022/03/27 02:27:33;;;;;;;21.70;15.10;;;6.00;99.90;;;;;;4994101;28;20516;-77
2022/03/27 02:29:59;;;;;;;20.83;14.00;;;6.00;99.90;;;;;;4993907;28;20054;-77
2022/03/27 02:32:24;;;;;;;20.38;13.68;;;6.00;99.90;;;;;;4976809;28;20177;-77
2022/03/27 02:34:50;;;;;;;21.73;13.80;;;6.00;99.90;;;;;;4994071;28;20041;-77
2022/03/27 02:37:16;;;;;;;21.50;14.77;;;5.90;99.90;;;;;;4993725;28;20042;-77
2022/03/27 02:39:44;;;;;;;21.08;14.80;;;5.90;99.90;;;;;;4993979;28;20042;-77
2022/03/27 02:42:10;;;;;;;20.10;13.82;;;5.90;99.90;;;;;;4993974;28;20084;-77
2022/03/27 02:44:36;;;;;;;19.25;13.40;;;5.90;99.90;;;;;;4994142;28;20401;-77
2022/03/27 02:47:01;;;;;;;18.60;13.63;;;5.90;99.90;;;;;;4993190;28;20038;-77
2022/03/27 02:49:27;;;;;;;19.52;14.00;;;5.90;99.90;;;;;;4977080;28;20046;-77
2022/03/27 02:51:53;;;;;;;20.00;14.00;;;5.90;99.90;;;;;;4993838;28;20497;-77
2022/03/27 02:54:19;;;;;;;20.77;13.70;;;5.90;99.90;;;;;;4977924;28;20030;-77
2022/03/27 02:56:46;;;;;;;19.45;13.40;;;5.90;99.90;;;;;;5009931;28;20042;-77
2022/03/27 02:59:11;;;;;;;18.90;13.13;;;5.80;99.90;;;;;;5009715;28;20042;-77
2022/03/27 03:01:37;;;;;;;18.13;12.32;;;5.80;99.90;;;;;;5009873;28;20057;-77
2022/03/27 03:04:04;;;;;;;18.98;13.43;;;5.90;99.90;;;;;;4976420;28;20046;-77
2022/03/27 03:06:32;;;;;;;18.85;13.55;;;5.80;99.90;;;;;;4977649;28;20421;-77
2022/03/27 03:08:57;;;;;;;20.33;13.82;;;5.80;99.90;;;;;;5009465;28;20420;-77
2022/03/27 03:11:23;;;;;;;19.80;12.95;;;5.80;99.90;;;;;;5009693;28;20042;-77
2022/03/27 03:13:51;;;;;;;19.50;13.48;;;5.70;99.90;;;;;;4976988;28;20050;-76
2022/03/27 03:16:19;;;;;;;20.60;13.85;;;5.60;99.90;;;;;;4993523;28;20453;-76
2022/03/27 03:18:45;;;;;;;21.08;14.05;;;5.40;99.90;;;;;;4992113;28;20070;-76
2022/03/27 03:21:11;;;;;;;22.55;13.40;;;5.40;99.90;;;;;;4977084;28;20445;-76
2022/03/27 03:23:37;;;;;;;21.08;13.57;;;5.40;99.90;;;;;;4976717;28;20046;-76
2022/03/27 03:26:04;;;;;;;20.15;13.15;;;5.40;99.90;;;;;;4961150;28;20050;-76
2022/03/27 03:28:30;;;;;;;19.13;12.18;;;5.30;99.90;;;;;;5009349;28;20536;-76
2022/03/27 03:30:56;;;;;;;18.75;11.98;;;5.40;99.90;;;;;;5009288;28;20054;-76
2022/03/27 03:33:21;;;;;;;18.70;12.20;;;5.30;99.90;;;;;;4975764;28;20509;-76
2022/03/27 03:35:47;;;;;;;19.45;12.43;;;5.40;99.90;;;;;;4960800;28;20057;-76
2022/03/27 03:38:13;;;;;;;17.65;12.23;;;5.50;99.90;;;;;;4992500;28;20165;-76
2022/03/27 03:40:41;;;;;;;22.92;13.85;;;5.50;99.90;;;;;;4973029;28;20047;-76
2022/03/27 03:43:11;;;;;;;23.63;14.55;;;5.50;99.90;;;;;;4973436;28;20042;-76
2022/03/27 03:45:37;;;;;;;17.83;11.55;;;5.50;99.90;;;;;;4973340;28;20156;-76
2022/03/27 03:48:04;;;;;;;21.52;13.13;;;5.50;99.90;;;;;;4972214;28;20082;-76
2022/03/27 03:50:33;;;;;;;22.55;13.75;;;5.50;99.90;;;;;;4973424;28;20378;-76
2022/03/27 03:52:59;;;;;;;20.20;13.05;;;5.60;99.90;;;;;;4957473;28;20129;-76
2022/03/27 03:55:26;;;;;;;23.98;14.88;;;5.40;99.90;;;;;;4974515;28;20042;-76
2022/03/27 03:57:51;;;;;;;23.73;14.68;;;5.50;99.90;;;;;;4972995;28;20081;-76
2022/03/27 04:00:17;;;;;;;23.10;14.95;;;5.50;99.90;;;;;;4941267;28;20054;-76
2022/03/27 04:02:44;;;;;;;20.80;13.40;;;5.40;99.90;;;;;;4972076;28;20047;-76
2022/03/27 04:05:09;;;;;;;23.23;14.20;;;5.40;99.90;;;;;;4973174;28;20074;-76
2022/03/27 04:07:35;;;;;;;20.60;12.98;;;5.30;99.90;;;;;;4956743;28;20042;-76
2022/03/27 04:10:03;;;;;;;23.02;13.40;;;5.30;99.90;;;;;;4973255;28;20113;-76
2022/03/27 04:12:29;;;;;;;21.90;13.52;;;5.30;99.90;;;;;;4956793;28;20054;-76
2022/03/27 04:14:55;;;;;;;21.27;12.77;;;5.30;99.90;;;;;;4973112;28;20039;-76
2022/03/27 04:17:20;;;;;;;21.75;13.32;;;5.30;99.90;;;;;;4972226;28;20038;-76
2022/03/27 04:19:46;;;;;;;19.98;12.57;;;5.30;99.90;;;;;;4957246;28;20052;-76
2022/03/27 04:22:12;;;;;;;20.20;12.07;;;5.40;99.90;;;;;;4956943;28;20039;-76
2022/03/27 04:24:37;;;;;;;25.65;12.65;;;5.30;99.90;;;;;;4940970;28;20051;-76
2022/03/27 04:27:03;;;;;;;23.98;12.43;;;5.40;99.90;;;;;;4956602;28;20125;-76
2022/03/27 04:29:29;;;;;;;22.63;11.70;;;5.40;99.90;;;;;;4972523;28;20074;-76
2022/03/27 04:31:55;;;;;;;21.02;11.43;;;5.50;99.90;;;;;;4972746;28;20089;-76
2022/03/27 04:34:21;;;;;;;21.65;10.75;;;5.50;99.90;;;;;;4972129;28;20490;-76
2022/03/27 04:36:47;;;;;;;22.75;11.50;;;5.60;99.90;;;;;;4973017;28;20112;-76
2022/03/27 04:39:13;;;;;;;22.38;11.43;;;5.50;99.90;;;;;;4956760;28;20051;-76
2022/03/27 04:41:38;;;;;;;24.25;11.43;;;5.60;99.90;;;;;;4973032;28;20050;-76
2022/03/27 04:44:05;;;;;;;22.58;10.85;;;5.50;99.90;;;;;;4972560;28;20078;-76
2022/03/27 04:46:31;;;;;;;19.55;10.18;;;5.50;99.90;;;;;;4972649;28;20046;-76
2022/03/27 04:48:56;;;;;;;17.95;10.48;;;5.50;99.90;;;;;;4971918;28;20054;-76
2022/03/27 04:51:22;;;;;;;22.83;10.18;;;5.50;99.90;;;;;;4972714;28;20074;-76
2022/03/27 04:53:49;;;;;;;27.13;11.00;;;5.50;99.90;;;;;;4975856;28;20047;-76
2022/03/27 04:56:15;;;;;;;20.55;10.02;;;5.50;99.90;;;;;;4976490;28;20158;-76
2022/03/27 04:58:41;;;;;;;31.77;13.10;;;5.50;99.90;;;;;;4976379;28;20389;-76
2022/03/27 05:01:07;;;;;;;26.70;11.65;;;5.50;99.90;;;;;;4960436;28;20046;-76
2022/03/27 05:03:33;;;;;;;30.60;12.65;;;5.50;99.90;;;;;;4959472;28;20042;-76
2022/03/27 05:05:59;;;;;;;36.97;12.88;;;5.70;99.90;;;;;;4960139;28;20078;-76
2022/03/27 05:08:25;;;;;;;32.40;12.13;;;5.50;99.90;;;;;;4976009;28;20169;-76
2022/03/27 05:10:51;;;;;;;26.33;11.52;;;5.50;99.90;;;;;;4976053;28;20098;-76
2022/03/27 05:13:18;;;;;;;30.38;12.68;;;5.60;99.90;;;;;;4960040;28;20490;-76
2022/03/27 05:15:44;;;;;;;30.17;11.50;;;5.50;99.90;;;;;;4944553;28;20533;-76
2022/03/27 05:18:10;;;;;;;27.70;10.82;;;5.50;99.90;;;;;;4958921;28;20035;-76
2022/03/27 05:20:41;;;;;;;26.52;10.80;;;5.50;99.90;;;;;;4959946;28;20064;-76
2022/03/27 05:23:07;;;;;;;27.25;9.93;;;5.60;99.90;;;;;;4975812;28;20059;-76
2022/03/27 05:25:40;;;;;;;31.00;10.70;;;5.60;99.90;;;;;;4975925;28;20105;-76
2022/03/27 05:28:10;;;;;;;26.92;9.60;;;5.60;99.90;;;;;;4975674;28;20101;-76
2022/03/27 05:30:36;;;;;;;26.67;9.30;;;5.60;99.90;;;;;;4975481;28;20063;-76
2022/03/27 05:33:03;;;;;;;26.35;9.93;;;5.80;99.90;;;;;;4958595;28;20045;-76
2022/03/27 05:35:29;;;;;;;31.75;9.68;;;5.60;99.90;;;;;;4975813;28;20113;-76
2022/03/27 05:37:55;;;;;;;35.63;10.23;;;5.60;99.90;;;;;;4959669;28;20035;-76
2022/03/27 05:40:23;;;;;;;33.50;10.50;;;5.70;99.90;;;;;;4959530;28;20045;-76
2022/03/27 05:42:49;;;;;;;33.42;9.98;;;5.60;99.90;;;;;;4975341;28;20051;-76
2022/03/27 05:45:16;;;;;;;31.45;9.48;;;5.60;99.90;;;;;;4975610;28;20047;-76
2022/03/27 05:47:42;;;;;;;34.15;10.18;;;5.60;99.90;;;;;;4974650;28;20441;-76
2022/03/27 05:50:10;;;;;;;32.70;9.52;;;5.60;99.90;;;;;;4975453;28;20073;-76
2022/03/27 05:52:36;;;;;;;35.25;9.43;;;5.70;99.90;;;;;;4975103;28;20101;-76
2022/03/27 05:55:02;;;;;;;40.20;9.88;;;5.70;99.90;;;;;;4975440;28;20043;-76
2022/03/27 05:57:27;;;;;;;37.40;10.70;;;5.70;99.90;;;;;;4975080;28;20043;-76
2022/03/27 05:59:53;;;;;;;37.67;10.55;;;5.80;99.90;;;;;;4975686;28;20050;-76
2022/03/27 06:02:19;;;;;;;37.17;9.40;;;5.80;99.90;;;;;;4975773;28;20050;-76
2022/03/27 06:04:44;;;;;;;38.97;10.57;;;5.90;99.90;;;;;;4977613;28;20046;-76
2022/03/27 06:07:10;;;;;;;42.35;10.48;;;5.80;99.90;;;;;;4977811;28;20050;-76
2022/03/27 06:09:36;;;;;;;36.80;10.10;;;5.90;99.90;;;;;;4994781;28;20050;-76
2022/03/27 06:12:03;;;;;;;37.17;11.05;;;5.90;99.90;;;;;;4993969;28;20043;-76
2022/03/27 06:14:29;;;;;;;44.95;11.70;;;5.90;99.90;;;;;;4978180;28;20084;-76
2022/03/27 06:16:55;;;;;;;43.65;11.25;;;6.00;99.90;;;;;;4977780;28;20066;-76
2022/03/27 06:19:20;;;;;;;43.08;12.63;;;6.00;99.90;;;;;;4993950;28;20042;-76
2022/03/27 06:21:46;;;;;;;43.78;12.20;;;6.10;99.90;;;;;;4994272;28;20163;-76
2022/03/27 06:24:12;;;;;;;44.80;12.73;;;6.10;99.90;;;;;;4993526;28;20042;-76
2022/03/27 06:26:39;;;;;;;43.65;12.88;;;6.10;99.90;;;;;;4985045;28;20126;-76
2022/03/27 06:29:04;;;;;;;54.03;16.20;;;6.10;99.90;;;;;;4974949;28;20053;-76
2022/03/27 06:31:30;;;;;;;53.22;17.30;;;6.20;99.90;;;;;;4981487;28;20514;-77
2022/03/27 06:33:56;;;;;;;45.72;16.08;;;6.20;99.90;;;;;;4978779;28;20042;-77
2022/03/27 06:36:22;;;;;;;54.00;19.30;;;6.20;99.90;;;;;;4990340;28;20031;-77
2022/03/27 06:38:47;;;;;;;55.80;19.98;;;6.20;99.90;;;;;;4974363;28;20429;-77
2022/03/27 06:41:13;;;;;;;45.97;18.42;;;6.30;99.90;;;;;;4990582;28;20043;-77
2022/03/27 06:43:39;;;;;;;50.30;19.00;;;6.30;99.90;;;;;;4926447;28;20038;-77
2022/03/27 06:46:06;;;;;;;49.55;19.15;;;6.40;99.90;;;;;;4958343;28;20042;-78
2022/03/27 06:48:32;;;;;;;49.60;18.80;;;6.50;99.90;;;;;;4957939;28;20046;-78
2022/03/27 06:50:58;;;;;;;45.42;17.77;;;6.50;99.90;;;;;;4961315;28;20042;-77
2022/03/27 06:53:24;;;;;;;51.28;17.85;;;6.50;99.90;;;;;;4993509;28;20046;-78
2022/03/27 06:55:51;;;;;;;47.28;17.67;;;6.40;99.90;;;;;;4977826;28;20052;-78
2022/03/27 06:58:17;;;;;;;46.83;17.10;;;6.40;99.90;;;;;;4993634;28;20061;-78
2022/03/27 07:03:28;;;;;;;46.92;17.73;;;6.50;99.90;;;;;;4973729;28;20527;-77
2022/03/27 07:05:54;;;;;;;50.88;17.33;;;6.50;99.90;;;;;;4973614;28;20039;-77
2022/03/27 07:08:20;;;;;;;49.50;16.80;;;6.50;99.90;;;;;;4980662;28;20070;-77
2022/03/27 07:10:48;;;;;;;43.55;15.35;;;6.70;99.90;;;;;;4993260;28;20515;-77
2022/03/27 07:13:15;;;;;;;41.40;14.35;;;6.80;99.90;;;;;;4993445;28;20375;-77
2022/03/27 07:15:43;;;;;;;41.17;12.80;;;6.80;99.90;;;;;;4992644;28;20042;-77
2022/03/27 07:18:10;;;;;;;40.47;12.60;;;6.90;99.90;;;;;;4976335;28;20088;-77
2022/03/27 07:20:38;;;;;;;45.03;13.52;;;7.00;99.90;;;;;;4977782;28;20046;-77
2022/03/27 07:23:05;;;;;;;44.60;14.50;;;6.80;99.90;;;;;;4972325;28;20039;-77
2022/03/27 07:25:34;;;;;;;44.55;15.50;;;6.80;99.90;;;;;;4972091;28;20085;-77
2022/03/27 07:28:05;;;;;;;42.70;12.43;;;6.90;99.90;;;;;;4973285;28;20043;-77
2022/03/27 07:30:31;;;;;;;46.53;12.65;;;6.90;99.90;;;;;;4955871;28;20059;-77
2022/03/27 07:32:57;;;;;;;43.42;12.85;;;7.20;99.90;;;;;;4972566;28;20121;-77
2022/03/27 07:35:25;;;;;;;38.80;15.07;;;7.00;99.90;;;;;;4940983;28;20154;-77
2022/03/27 07:37:52;;;;;;;50.13;15.73;;;7.20;99.90;;;;;;4972904;28;20453;-77
2022/03/27 07:40:20;;;;;;;42.25;15.50;;;7.00;99.90;;;;;;4989292;28;20038;-77
2022/03/27 07:42:49;;;;;;;47.90;16.17;;;7.00;99.90;;;;;;4975047;28;20034;-77
2022/03/27 07:45:18;;;;;;;39.72;12.40;;;7.10;99.90;;;;;;4972337;28;20517;-77
2022/03/27 07:47:44;;;;;;;44.05;11.48;;;7.30;99.90;;;;;;4988337;28;20501;-77
2022/03/27 07:50:11;;;;;;;43.67;12.30;;;7.50;99.90;;;;;;4972942;28;20122;-77
2022/03/27 07:52:37;;;;;;;38.20;13.50;;;7.50;99.90;;;;;;4972358;28;20038;-77
2022/03/27 07:55:04;;;;;;;43.72;15.43;;;7.60;99.90;;;;;;4972651;28;20062;-77
2022/03/27 07:57:30;;;;;;;41.88;11.30;;;7.60;99.90;;;;;;4972355;28;20121;-77
2022/03/27 07:59:56;;;;;;;39.33;10.88;;;7.80;99.90;;;;;;4956688;28;20482;-77
2022/03/27 08:02:22;;;;;;;45.08;11.55;;;8.00;99.90;;;;;;4971696;28;20506;-77
2022/03/27 08:04:48;;;;;;;44.45;15.35;;;8.00;99.90;;;;;;4972532;28;20104;-75
2022/03/27 08:07:14;;;;;;;43.60;12.20;;;8.10;99.90;;;;;;4972293;28;20379;-75
2022/03/27 08:09:40;;;;;;;42.63;12.48;;;8.40;99.90;;;;;;4973514;28;20039;-75
2022/03/27 08:12:08;;;;;;;44.13;10.35;;;8.70;99.90;;;;;;4975772;28;20052;-75
2022/03/27 08:14:35;;;;;;;34.50;10.02;;;8.80;99.90;;;;;;4992197;28;20041;-75
2022/03/27 08:17:01;;;;;;;37.92;9.70;;;8.90;99.90;;;;;;4991062;28;20042;-75
2022/03/27 08:19:27;;;;;;;39.83;9.90;;;8.80;99.90;;;;;;4991849;28;20047;-75
2022/03/27 08:21:53;;;;;;;42.65;10.18;;;8.60;99.90;;;;;;4991972;28;20035;-75
2022/03/27 08:24:20;;;;;;;41.85;9.98;;;8.70;99.90;;;;;;4988735;28;20042;-75
2022/03/27 08:27:00;;;;;;;40.70;10.30;;;8.70;99.90;;;;;;4993353;28;20037;-75
2022/03/27 08:29:29;;;;;;;36.65;9.02;;;8.80;99.90;;;;;;4981483;28;20185;-75
2022/03/27 08:31:55;;;;;;;34.00;8.52;;;9.20;99.90;;;;;;4995309;28;20055;-75
2022/03/27 08:34:25;;;;;;;35.38;9.85;;;9.30;99.90;;;;;;4992218;28;20035;-75
2022/03/27 08:36:51;;;;;;;35.13;9.05;;;9.30;99.90;;;;;;4995533;28;20035;-75
2022/03/27 08:39:18;;;;;;;38.92;8.88;;;9.90;99.90;;;;;;4996040;28;20054;-75
2022/03/27 08:41:45;;;;;;;33.88;8.43;;;9.90;99.90;;;;;;4976954;28;20512;-75
2022/03/27 08:44:18;;;;;;;36.55;8.68;;;10.00;99.90;;;;;;4976671;28;20481;-75
2022/03/27 08:46:45;;;;;;;37.40;9.23;;;9.90;99.90;;;;;;4976830;28;20453;-75
2022/03/27 08:49:40;;;;;;;36.95;9.00;;;9.80;99.90;;;;;;4975537;28;20043;-75
2022/03/27 08:52:28;;;;;;;40.03;9.13;;;10.00;99.90;;;;;;4976237;28;20047;-75
2022/03/27 08:55:07;;;;;;;33.75;8.82;;;9.90;99.90;;;;;;4976497;28;20133;-75
2022/03/27 08:58:00;;;;;;;31.75;8.38;;;10.00;99.90;;;;;;4960371;28;20441;-75
2022/03/27 09:00:30;;;;;;;;;;;9.90;99.90;;;;;;4976902;28;20105;-75
2022/03/27 09:03:01;;;;;;;34.40;8.30;;;10.00;99.90;;;;;;4975200;28;20375;-75
2022/03/27 09:05:27;;;;;;;40.33;9.23;;;10.20;99.90;;;;;;4992512;28;20042;-75
2022/03/27 09:07:54;;;;;;;40.95;8.90;;;10.60;99.90;;;;;;4959873;28;20093;-75
2022/03/27 09:10:22;;;;;;;35.67;8.95;;;11.00;99.90;;;;;;4992355;28;20078;-75
2022/03/27 09:12:47;;;;;;;36.17;8.43;;;11.20;99.90;;;;;;4975862;28;20406;-76
2022/03/27 09:15:14;;;;;;;34.08;8.45;;;11.20;99.90;;;;;;4958948;28;20038;-75
2022/03/27 09:18:04;;;;;;;38.70;9.50;;;11.00;99.90;;;;;;4960899;28;20089;-75
2022/03/27 09:20:36;;;;;;;37.42;11.38;;;11.20;99.90;;;;;;4990047;28;20050;-75
2022/03/27 09:23:13;;;;;;;40.13;9.98;;;11.10;99.90;;;;;;4995484;28;20374;-75
2022/03/27 09:25:46;;;;;;;36.72;9.77;;;10.90;99.90;;;;;;4995422;28;20050;-75
2022/03/27 09:28:21;;;;;;;38.97;12.48;;;10.90;99.90;;;;;;4993459;28;20121;-75
2022/03/27 09:30:46;;;;;;;37.40;12.55;;;11.20;99.90;;;;;;4991073;28;20125;-75
2022/03/27 09:33:12;;;;;;;41.30;10.50;;;11.30;99.90;;;;;;4974340;28;20526;-75
2022/03/27 09:35:39;;;;;;;34.15;9.85;;;11.30;99.90;;;;;;4975184;28;20046;-75
2022/03/27 09:38:15;;;;;;;37.03;9.82;;;11.60;99.90;;;;;;4974323;28;20043;-75
2022/03/27 09:40:41;;;;;;;35.60;9.32;;;11.70;99.90;;;;;;4975107;28;20409;-75
2022/03/27 09:43:11;;;;;;;34.25;8.60;;;11.70;99.90;;;;;;4959064;28;20054;-75
2022/03/27 09:45:37;;;;;;;34.92;8.32;;;11.60;99.50;;;;;;4974939;28;20246;-75
2022/03/27 09:48:09;;;;;;;34.55;8.50;;;11.80;99.90;;;;;;4973999;28;20049;-75
2022/03/27 09:50:37;;;;;;;37.42;9.30;;;12.00;99.90;;;;;;4974988;28;20177;-75
2022/03/27 09:53:27;;;;;;;35.35;9.32;;;11.50;99.90;;;;;;4991915;28;20034;-75
2022/03/27 09:55:59;;;;;;;37.97;9.15;;;11.50;99.90;;;;;;4993815;28;20046;-75
2022/03/27 09:58:34;;;;;;;;;;;12.00;99.40;;;;;;4975028;28;20486;-75
2022/03/27 10:01:17;;;;;;;35.03;8.73;;;11.90;96.20;;;;;;4991008;28;20395;-75
2022/03/27 10:04:00;;;;;;;34.67;8.55;;;12.20;98.40;;;;;;4990125;28;20512;-75
2022/03/27 10:06:27;;;;;;;34.10;8.40;;;12.30;95.80;;;;;;4958473;28;20130;-75
2022/03/27 10:08:53;;;;;;;30.73;8.15;;;12.50;96.00;;;;;;4974436;28;20053;-75
2022/03/27 10:11:22;;;;;;;31.88;7.95;;;12.70;95.80;;;;;;4943121;28;20430;-76
2022/03/27 10:13:50;;;;;;;27.25;7.38;;;12.90;93.60;;;;;;4958806;28;20086;-76
2022/03/27 10:16:16;;;;;;;30.23;8.35;;;12.90;94.00;;;;;;4975036;28;20089;-76
2022/03/27 10:18:43;;;;;;;35.90;9.05;;;13.00;95.20;;;;;;4973950;28;20043;-76
2022/03/27 10:21:12;;;;;;;28.92;8.48;;;13.00;93.90;;;;;;4975251;28;20613;-76
2022/03/27 10:23:40;;;;;;;38.42;8.65;;;13.10;92.00;;;;;;4958755;28;20042;-76
2022/03/27 10:26:06;;;;;;;29.83;8.15;;;13.10;91.70;;;;;;4974587;28;20054;-76
2022/03/27 10:28:33;;;;;;;36.15;8.55;;;13.20;90.30;;;;;;4958578;28;20043;-75
2022/03/27 10:30:59;;;;;;;32.72;8.15;;;13.20;92.90;;;;;;4978061;28;20122;-76
2022/03/27 10:33:28;;;;;;;30.98;8.60;;;13.20;92.70;;;;;;4975446;28;20045;-76
2022/03/27 10:36:17;;;;;;;30.52;8.05;;;13.20;90.70;;;;;;4973750;28;20038;-76
2022/03/27 10:39:12;;;;;;;31.75;8.18;;;13.40;91.60;;;;;;4989415;28;20038;-76
2022/03/27 10:41:43;;;;;;;32.75;7.80;;;13.00;91.10;;;;;;4988776;28;20414;-76
2022/03/27 10:44:33;;;;;;;31.30;8.43;;;13.40;92.90;;;;;;4977031;28;20096;-76
2022/03/27 10:47:13;;;;;;;34.17;8.63;;;13.70;87.60;;;;;;4990608;28;20493;-76
2022/03/27 10:49:40;;;;;;;29.60;8.25;;;13.80;87.40;;;;;;4988801;28;20109;-76
2022/03/27 10:52:08;;;;;;;28.40;7.93;;;13.60;87.50;;;;;;4958909;28;20375;-76
2022/03/27 10:55:01;;;;;;;32.65;9.52;;;13.60;88.30;;;;;;4972409;28;20034;-77
2022/03/27 10:57:35;;;;;;;33.40;7.60;;;13.80;86.70;;;;;;4982356;28;20038;-77
2022/03/27 11:00:06;;;;;;;32.33;8.68;;;13.90;82.60;;;;;;4963410;28;20046;-77
2022/03/27 11:02:41;;;;;;;30.60;8.48;;;13.90;83.20;;;;;;4974783;28;20093;-77
2022/03/27 11:05:07;;;;;;;22.55;6.35;;;13.90;85.20;;;;;;4956788;28;20050;-77
2022/03/27 11:07:33;;;;;;;27.65;7.05;;;13.70;81.50;;;;;;4962477;28;20046;-77
2022/03/27 11:09:59;;;;;;;24.85;6.90;;;13.90;75.60;;;;;;4972814;28;20127;-77
2022/03/27 11:12:24;;;;;;;30.67;7.80;;;14.00;79.10;;;;;;4970274;28;20482;-77
2022/03/27 11:14:53;;;;;;;26.63;7.25;;;13.80;77.40;;;;;;4976387;28;20082;-77
2022/03/27 11:17:40;;;;;;;26.50;7.43;;;14.00;83.10;;;;;;4981904;28;20050;-77
2022/03/27 11:20:09;;;;;;;27.30;8.02;;;14.00;78.50;;;;;;4972073;28;20034;-77
2022/03/27 11:22:55;;;;;;;23.85;7.22;;;14.20;77.80;;;;;;4974954;28;20046;-77
2022/03/27 11:25:29;;;;;;;25.90;7.13;;;14.30;73.50;;;;;;4978247;28;20379;-77
2022/03/27 11:27:56;;;;;;;25.58;7.20;;;13.90;72.10;;;;;;4971704;28;20050;-77
2022/03/27 11:30:22;;;;;;;26.50;6.78;;;14.10;72.20;;;;;;4988123;28;20117;-77
2022/03/27 11:33:11;;;;;;;25.50;6.78;;;14.30;74.00;;;;;;4962286;28;20050;-77
2022/03/27 11:35:37;;;;;;;24.67;7.07;;;14.50;72.60;;;;;;4986104;28;20039;-79
2022/03/27 11:38:20;;;;;;;26.52;6.85;;;14.50;67.90;;;;;;4973518;28;20122;-78
2022/03/27 11:40:45;;;;;;;24.30;6.78;;;14.40;70.50;;;;;;4987949;28;20101;-78
2022/03/27 11:43:32;;;;;;;27.83;7.55;;;14.50;71.20;;;;;;4955839;28;20070;-78
2022/03/27 11:45:59;;;;;;;23.52;6.30;;;14.50;74.00;;;;;;4971994;28;20141;-78
2022/03/27 11:48:25;;;;;;;23.02;6.43;;;14.70;68.90;;;;;;4969097;28;20054;-78
2022/03/27 11:50:55;;;;;;;25.60;7.57;;;14.70;67.00;;;;;;4970532;28;20513;-78
2022/03/27 11:53:34;;;;;;;25.80;6.90;;;14.70;71.30;;;;;;4955964;28;20116;-78
2022/03/27 11:56:11;;;;;;;23.33;6.53;;;14.60;70.40;;;;;;4969049;28;20042;-77
2022/03/27 11:58:38;;;;;;;26.15;6.72;;;14.60;68.80;;;;;;4972376;28;20082;-77
2022/03/27 12:01:10;;;;;;;23.58;6.80;;;14.70;69.70;;;;;;4972827;28;20051;-77
2022/03/27 12:03:37;;;;;;;21.05;5.55;;;14.50;67.30;;;;;;4970656;28;20119;-77
2022/03/27 12:06:07;;;;;;;24.58;6.38;;;14.70;69.30;;;;;;4972405;28;20043;-77
2022/03/27 12:08:36;;;;;;;21.98;5.97;;;14.80;67.90;;;;;;4972725;28;20398;-77
2022/03/27 12:11:06;;;;;;;25.55;6.45;;;14.80;65.90;;;;;;4973109;28;20047;-77
2022/03/27 12:13:41;;;;;;;21.17;6.43;;;14.80;66.20;;;;;;4957058;28;20070;-77
2022/03/27 12:16:07;;;;;;;25.85;6.47;;;14.90;64.50;;;;;;4973419;28;20049;-77
2022/03/27 12:18:42;;;;;;;22.08;5.97;;;14.90;67.40;;;;;;4971966;28;20082;-77
2022/03/27 12:21:12;;;;;;;25.65;5.95;;;14.90;63.40;;;;;;4957194;28;20038;-77
2022/03/27 12:23:41;;;;;;;23.00;4.90;;;15.00;63.80;;;;;;4976698;28;20050;-77
2022/03/27 12:32:13;;;;;;;20.55;5.85;;;15.00;62.00;;;;;;4971931;28;20054;-77
2022/03/27 12:34:50;;;;;;;20.17;5.57;;;14.60;60.20;;;;;;4973224;28;20047;-77
2022/03/27 12:37:18;;;;;;;24.00;6.40;;;14.60;63.10;;;;;;4972697;28;20042;-77
2022/03/27 12:39:50;;;;;;;23.88;6.28;;;14.40;64.50;;;;;;4972859;28;20130;-77
2022/03/27 12:42:55;;;;;;;21.77;5.90;;;14.60;62.30;;;;;;4972620;28;20050;-77
2022/03/27 12:45:33;;;;;;;25.65;6.53;;;14.60;63.70;;;;;;4917702;29;20044;-77
2022/03/27 12:48:03;;;;;;;22.73;6.32;;;14.80;64.90;;;;;;4916859;28;20051;-77
2022/03/27 12:50:33;;;;;;;21.58;5.63;;;14.70;62.90;;;;;;4951654;28;20137;-77
2022/03/27 12:53:23;;;;;;;22.52;5.57;;;15.10;60.70;;;;;;4991854;28;20074;-77
2022/03/27 12:56:01;;;;;;;20.10;5.80;;;15.20;60.60;;;;;;4992178;28;20121;-77
2022/03/27 12:58:36;;;;;;;25.58;6.18;;;15.10;62.30;;;;;;4992125;28;20397;-77